sensor_id;sensor_type;location;lat;lon;timestamp;pressure;altitude;pressure_sealevel;temperature;humidity
64862;BME280;62652;42.274;-71.436;2024-01-30T00:00:01;100870.0;;;0.7222222222222207;100.0
64862;BME280;62652;42.274;-71.436;2024-01-30T00:01:00;100870.0;;;0.6111111111111119;100.0
64862;BME280;62652;42.274;-71.436;2024-01-30T00:02:00;100870.0;;;0.7222222222222207;100.0
64862;BME280;62652;42.274;-71.436;2024-01-30T00:03:00;100870.0;;;0.6111111111111119;100.0
64862;BME280;62652;42.274;-71.436;2024-01-30T00:04:00;100870.0;;;0.777777777777777;100.0
64862;BME280;62652;42.274;-71.436;2024-01-30T00:05:00;100880.0;;;0.777777777777777;100.0
64862;BME280;62652;42.274;-71.436;2024-01-30T00:06:00;100880.0;;;0.6111111111111119;100.0
64862;BME280;62652;42.274;-71.436;2024-01-30T00:07:01;100880.0;;;0.6111111111111119;100.0
64862;BME280;62652;42.274;-71.436;2024-01-30T00:08:00;100880.0;;;0.7222222222222207;100.0
64862;BME280;62652;42.274;-71.436;2024-01-30T00:09:00;100880.0;;;0.7222222222222207;100.0
64862;BME280;62652;42.274;-71.436;2024-01-30T00:10:00;100880.0;;;0.7222222222222207;100.0
64862;BME280;62652;42.274;-71.436;2024-01-30T00:11:01;100880.0;;;0.7222222222222207;100.0
64862;BME280;62652;42.274;-71.436;2024-01-30T00:12:01;100880.0;;;0.6111111111111119;100.0
64862;BME280;62652;42.274;-71.436;2024-01-30T00:13:00;100880.0;;;0.777777777777777;100.0
64862;BME280;62652;42.274;-71.436;2024-01-30T00:14:00;100880.0;;;0.7222222222222207;100.0
64862;BME280;62652;42.274;-71.436;2024-01-30T00:15:01;100890.0;;;0.777777777777777;100.0
64862;BME280;62652;42.274;-71.436;2024-01-30T00:16:00;100890.0;;;0.777777777777777;100.0
64862;BME280;62652;42.274;-71.436;2024-01-30T00:17:00;100890.0;;;0.777777777777777;100.0
64862;BME280;62652;42.274;-71.436;2024-01-30T00:18:00;100890.0;;;0.777777777777777;100.0
64862;BME280;62652;42.274;-71.436;2024-01-30T00:19:00;100890.0;;;0.7222222222222207;100.0
64862;BME280;62652;42.274;-71.436;2024-01-30T00:20:00;100890.0;;;0.7222222222222207;100.0
64862;BME280;62652;42.274;-71.436;2024-01-30T00:21:00;100890.0;;;0.777777777777777;100.0
64862;BME280;62652;42.274;-71.436;2024-01-30T00:22:00;100890.0;;;0.7222222222222207;100.0
64862;BME280;62652;42.274;-71.436;2024-01-30T00:23:01;100890.0;;;0.777777777777777;100.0
64862;BME280;62652;42.274;-71.436;2024-01-30T00:24:01;100890.0;;;0.777777777777777;100.0
64862;BME280;62652;42.274;-71.436;2024-01-30T00:25:01;100900.0;;;0.777777777777777;100.0
64862;BME280;62652;42.274;-71.436;2024-01-30T00:26:00;100900.0;;;0.8888888888888897;100.0
64862;BME280;62652;42.274;-71.436;2024-01-30T00:27:00;100900.0;;;0.777777777777777;100.0
64862;BME280;62652;42.274;-71.436;2024-01-30T00:28:01;100900.0;;;0.7222222222222207;100.0
64862;BME280;62652;42.274;-71.436;2024-01-30T00:29:01;100900.0;;;0.7222222222222207;100.0
64862;BME280;62652;42.274;-71.436;2024-01-30T00:30:01;100920.0;;;0.777777777777777;100.0
64862;BME280;62652;42.274;-71.436;2024-01-30T00:31:00;100910.0;;;0.777777777777777;100.0
64862;BME280;62652;42.274;-71.436;2024-01-30T00:32:00;100920.0;;;0.777777777777777;100.0
64862;BME280;62652;42.274;-71.436;2024-01-30T00:33:00;100930.0;;;0.8888888888888897;100.0
64862;BME280;62652;42.274;-71.436;2024-01-30T00:34:00;100930.0;;;0.8888888888888897;100.0
64862;BME280;62652;42.274;-71.436;2024-01-30T00:35:01;100930.0;;;0.777777777777777;100.0
64862;BME280;62652;42.274;-71.436;2024-01-30T00:36:00;100940.0;;;0.777777777777777;100.0
64862;BME280;62652;42.274;-71.436;2024-01-30T00:37:00;100940.0;;;0.7222222222222207;100.0
64862;BME280;62652;42.274;-71.436;2024-01-30T00:38:01;100940.0;;;0.7222222222222207;100.0
64862;BME280;62652;42.274;-71.436;2024-01-30T00:39:00;100940.0;;;0.6111111111111119;100.0
64862;BME280;62652;42.274;-71.436;2024-01-30T00:40:00;100940.0;;;0.6111111111111119;100.0
64862;BME280;62652;42.274;-71.436;2024-01-30T00:41:01;100940.0;;;0.6111111111111119;100.0
64862;BME280;62652;42.274;-71.436;2024-01-30T00:42:00;100950.0;;;0.6111111111111119;100.0
64862;BME280;62652;42.274;-71.436;2024-01-30T00:43:00;100950.0;;;0.6111111111111119;100.0
64862;BME280;62652;42.274;-71.436;2024-01-30T00:44:01;100950.0;;;0.38888888888889045;100.0
64862;BME280;62652;42.274;-71.436;2024-01-30T00:45:00;100950.0;;;0.2777777777777778;100.0
64862;BME280;62652;42.274;-71.436;2024-01-30T00:46:01;100950.0;;;0.38888888888889045;100.0
64862;BME280;62652;42.274;-71.436;2024-01-30T00:47:00;100960.0;;;0.38888888888889045;100.0
64862;BME280;62652;42.274;-71.436;2024-01-30T00:48:00;100960.0;;;0.38888888888889045;100.0
64862;BME280;62652;42.274;-71.436;2024-01-30T00:49:00;100970.0;;;0.38888888888889045;100.0
64862;BME280;62652;42.274;-71.436;2024-01-30T00:50:00;100970.0;;;0.2777777777777778;100.0
64862;BME280;62652;42.274;-71.436;2024-01-30T00:51:00;100970.0;;;0.2777777777777778;100.0
64862;BME280;62652;42.274;-71.436;2024-01-30T00:52:01;100980.0;;;0.2777777777777778;100.0
64862;BME280;62652;42.274;-71.436;2024-01-30T00:53:01;100980.0;;;0.22222222222222143;100.0
64862;BME280;62652;42.274;-71.436;2024-01-30T00:54:00;100980.0;;;0.2777777777777778;100.0
64862;BME280;62652;42.274;-71.436;2024-01-30T00:55:01;100980.0;;;0.22222222222222143;100.0
64862;BME280;62652;42.274;-71.436;2024-01-30T00:56:00;100980.0;;;0.22222222222222143;100.0
64862;BME280;62652;42.274;-71.436;2024-01-30T00:57:00;100980.0;;;0.22222222222222143;100.0
64862;BME280;62652;42.274;-71.436;2024-01-30T00:58:00;100980.0;;;0.22222222222222143;100.0
64862;BME280;62652;42.274;-71.436;2024-01-30T00:59:01;100980.0;;;0.22222222222222143;100.0
64862;BME280;62652;42.274;-71.436;2024-01-30T01:00:00;100990.0;;;0.0;100.0
64862;BME280;62652;42.274;-71.436;2024-01-30T01:01:01;100980.0;;;0.0;100.0
64862;BME280;62652;42.274;-71.436;2024-01-30T01:02:00;100990.0;;;0.0;100.0
64862;BME280;62652;42.274;-71.436;2024-01-30T01:03:01;100990.0;;;0.11111111111111269;100.0
64862;BME280;62652;42.274;-71.436;2024-01-30T01:04:00;100990.0;;;0.2777777777777778;100.0
64862;BME280;62652;42.274;-71.436;2024-01-30T01:05:00;100990.0;;;0.2777777777777778;100.0
64862;BME280;62652;42.274;-71.436;2024-01-30T01:06:01;100990.0;;;0.22222222222222143;100.0
64862;BME280;62652;42.274;-71.436;2024-01-30T01:07:00;100990.0;;;0.11111111111111269;100.0
64862;BME280;62652;42.274;-71.436;2024-01-30T01:08:00;100990.0;;;0.11111111111111269;100.0
64862;BME280;62652;42.274;-71.436;2024-01-30T01:09:00;100990.0;;;0.11111111111111269;100.0
64862;BME280;62652;42.274;-71.436;2024-01-30T01:10:00;100990.0;;;0.22222222222222143;100.0
64862;BME280;62652;42.274;-71.436;2024-01-30T01:11:00;101000.0;;;0.22222222222222143;100.0
64862;BME280;62652;42.274;-71.436;2024-01-30T01:12:01;101000.0;;;0.22222222222222143;100.0
64862;BME280;62652;42.274;-71.436;2024-01-30T01:13:00;101000.0;;;0.22222222222222143;100.0
64862;BME280;62652;42.274;-71.436;2024-01-30T01:14:00;101000.0;;;0.22222222222222143;100.0
64862;BME280;62652;42.274;-71.436;2024-01-30T01:15:00;101000.0;;;0.22222222222222143;100.0
64862;BME280;62652;42.274;-71.436;2024-01-30T01:16:00;101000.0;;;0.11111111111111269;100.0
64862;BME280;62652;42.274;-71.436;2024-01-30T01:17:01;101010.0;;;0.22222222222222143;100.0
64862;BME280;62652;42.274;-71.436;2024-01-30T01:18:00;101000.0;;;0.11111111111111269;100.0
64862;BME280;62652;42.274;-71.436;2024-01-30T01:19:00;101000.0;;;0.22222222222222143;100.0
64862;BME280;62652;42.274;-71.436;2024-01-30T01:20:01;101010.0;;;0.22222222222222143;100.0
64862;BME280;62652;42.274;-71.436;2024-01-30T01:21:00;101010.0;;;0.22222222222222143;100.0
64862;BME280;62652;42.274;-71.436;2024-01-30T01:22:00;101010.0;;;0.22222222222222143;100.0
64862;BME280;62652;42.274;-71.436;2024-01-30T01:23:01;101020.0;;;0.22222222222222143;100.0
64862;BME280;62652;42.274;-71.436;2024-01-30T01:24:00;101020.0;;;0.11111111111111269;100.0
64862;BME280;62652;42.274;-71.436;2024-01-30T01:25:00;101020.0;;;0.11111111111111269;100.0
64862;BME280;62652;42.274;-71.436;2024-01-30T01:26:00;101020.0;;;0.22222222222222143;100.0
64862;BME280;62652;42.274;-71.436;2024-01-30T01:27:00;101020.0;;;0.11111111111111269;100.0
64862;BME280;62652;42.274;-71.436;2024-01-30T01:28:00;101020.0;;;0.2777777777777778;100.0
64862;BME280;62652;42.274;-71.436;2024-01-30T01:29:00;101010.0;;;0.22222222222222143;100.0
64862;BME280;62652;42.274;-71.436;2024-01-30T01:30:00;101020.0;;;0.11111111111111269;100.0
64862;BME280;62652;42.274;-71.436;2024-01-30T01:31:00;101020.0;;;0.22222222222222143;100.0
64862;BME280;62652;42.274;-71.436;2024-01-30T01:32:00;101020.0;;;0.11111111111111269;100.0
64862;BME280;62652;42.274;-71.436;2024-01-30T01:33:00;101020.0;;;0.11111111111111269;100.0
64862;BME280;62652;42.274;-71.436;2024-01-30T01:34:00;101020.0;;;0.0;100.0
64862;BME280;62652;42.274;-71.436;2024-01-30T01:35:00;101020.0;;;0.0;100.0
64862;BME280;62652;42.274;-71.436;2024-01-30T01:36:00;101020.0;;;0.0;100.0
64862;BME280;62652;42.274;-71.436;2024-01-30T01:37:00;101010.0;;;0.11111111111111269;100.0
64862;BME280;62652;42.274;-71.436;2024-01-30T01:38:00;101010.0;;;0.0;100.0
64862;BME280;62652;42.274;-71.436;2024-01-30T01:39:01;101020.0;;;0.11111111111111269;100.0
64862;BME280;62652;42.274;-71.436;2024-01-30T01:40:00;101010.0;;;0.22222222222222143;100.0
64862;BME280;62652;42.274;-71.436;2024-01-30T01:41:00;101020.0;;;0.11111111111111269;100.0
64862;BME280;62652;42.274;-71.436;2024-01-30T01:42:00;101010.0;;;0.0;100.0
64862;BME280;62652;42.274;-71.436;2024-01-30T01:43:03;101020.0;;;0.11111111111111269;100.0
64862;BME280;62652;42.274;-71.436;2024-01-30T01:44:01;101020.0;;;0.0;100.0
64862;BME280;62652;42.274;-71.436;2024-01-30T01:45:01;101020.0;;;0.11111111111111269;100.0
64862;BME280;62652;42.274;-71.436;2024-01-30T01:46:00;101020.0;;;0.11111111111111269;100.0
64862;BME280;62652;42.274;-71.436;2024-01-30T01:47:01;101030.0;;;0.11111111111111269;100.0
64862;BME280;62652;42.274;-71.436;2024-01-30T01:48:01;101030.0;;;0.0;100.0
64862;BME280;62652;42.274;-71.436;2024-01-30T01:49:02;101030.0;;;-0.11111111111111072;100.0
64862;BME280;62652;42.274;-71.436;2024-01-30T01:50:00;101030.0;;;-0.11111111111111072;100.0
64862;BME280;62652;42.274;-71.436;2024-01-30T01:51:01;101030.0;;;0.0;100.0
64862;BME280;62652;42.274;-71.436;2024-01-30T01:52:01;101030.0;;;0.0;100.0
64862;BME280;62652;42.274;-71.436;2024-01-30T01:53:01;101040.0;;;-0.11111111111111072;100.0
64862;BME280;62652;42.274;-71.436;2024-01-30T01:54:03;101040.0;;;0.0;100.0
64862;BME280;62652;42.274;-71.436;2024-01-30T01:55:00;101040.0;;;0.11111111111111269;100.0
64862;BME280;62652;42.274;-71.436;2024-01-30T01:56:01;101040.0;;;0.0;100.0
64862;BME280;62652;42.274;-71.436;2024-01-30T01:57:01;101040.0;;;0.11111111111111269;100.0
64862;BME280;62652;42.274;-71.436;2024-01-30T01:58:01;101050.0;;;0.11111111111111269;100.0
64862;BME280;62652;42.274;-71.436;2024-01-30T01:59:05;101050.0;;;0.11111111111111269;100.0
64862;BME280;62652;42.274;-71.436;2024-01-30T02:00:01;101050.0;;;0.0;100.0
64862;BME280;62652;42.274;-71.436;2024-01-30T02:01:02;101050.0;;;-0.11111111111111072;100.0
64862;BME280;62652;42.274;-71.436;2024-01-30T02:02:02;101050.0;;;0.0;100.0
64862;BME280;62652;42.274;-71.436;2024-01-30T02:03:01;101060.0;;;0.0;100.0
64862;BME280;62652;42.274;-71.436;2024-01-30T02:04:00;101060.0;;;0.0;100.0
64862;BME280;62652;42.274;-71.436;2024-01-30T02:05:01;101060.0;;;0.0;100.0
64862;BME280;62652;42.274;-71.436;2024-01-30T02:06:01;101060.0;;;0.11111111111111269;100.0
64862;BME280;62652;42.274;-71.436;2024-01-30T02:07:00;101060.0;;;0.11111111111111269;100.0
64862;BME280;62652;42.274;-71.436;2024-01-30T02:08:01;101060.0;;;0.11111111111111269;100.0
64862;BME280;62652;42.274;-71.436;2024-01-30T02:09:00;101070.0;;;0.0;100.0
64862;BME280;62652;42.274;-71.436;2024-01-30T02:10:00;101060.0;;;0.0;100.0
64862;BME280;62652;42.274;-71.436;2024-01-30T02:11:01;101070.0;;;0.0;100.0
64862;BME280;62652;42.274;-71.436;2024-01-30T02:12:01;101070.0;;;0.0;100.0
64862;BME280;62652;42.274;-71.436;2024-01-30T02:13:00;101070.0;;;0.11111111111111269;100.0
64862;BME280;62652;42.274;-71.436;2024-01-30T02:14:03;101070.0;;;0.0;100.0
64862;BME280;62652;42.274;-71.436;2024-01-30T02:15:01;101080.0;;;0.11111111111111269;100.0
64862;BME280;62652;42.274;-71.436;2024-01-30T02:16:01;101080.0;;;0.0;100.0
64862;BME280;62652;42.274;-71.436;2024-01-30T02:17:00;101080.0;;;0.0;100.0
64862;BME280;62652;42.274;-71.436;2024-01-30T02:18:00;101080.0;;;0.0;100.0
64862;BME280;62652;42.274;-71.436;2024-01-30T02:19:00;101080.0;;;0.11111111111111269;100.0
64862;BME280;62652;42.274;-71.436;2024-01-30T02:20:01;101080.0;;;0.11111111111111269;100.0
64862;BME280;62652;42.274;-71.436;2024-01-30T02:21:04;101090.0;;;0.0;100.0
64862;BME280;62652;42.274;-71.436;2024-01-30T02:22:01;101090.0;;;-0.11111111111111072;100.0
64862;BME280;62652;42.274;-71.436;2024-01-30T02:23:01;101090.0;;;-0.11111111111111072;100.0
64862;BME280;62652;42.274;-71.436;2024-01-30T02:24:01;101090.0;;;-0.11111111111111072;100.0
64862;BME280;62652;42.274;-71.436;2024-01-30T02:25:00;101090.0;;;0.0;100.0
64862;BME280;62652;42.274;-71.436;2024-01-30T02:26:01;101100.0;;;0.0;100.0
64862;BME280;62652;42.274;-71.436;2024-01-30T02:27:01;101090.0;;;0.0;100.0
64862;BME280;62652;42.274;-71.436;2024-01-30T02:28:01;101100.0;;;0.0;100.0
64862;BME280;62652;42.274;-71.436;2024-01-30T02:29:00;101100.0;;;0.11111111111111269;100.0
64862;BME280;62652;42.274;-71.436;2024-01-30T02:30:00;101100.0;;;0.0;100.0
64862;BME280;62652;42.274;-71.436;2024-01-30T02:31:00;101100.0;;;0.11111111111111269;100.0
64862;BME280;62652;42.274;-71.436;2024-01-30T02:32:01;101100.0;;;0.0;100.0
64862;BME280;62652;42.274;-71.436;2024-01-30T02:33:00;101100.0;;;0.0;100.0
64862;BME280;62652;42.274;-71.436;2024-01-30T02:34:00;101100.0;;;0.0;100.0
64862;BME280;62652;42.274;-71.436;2024-01-30T02:35:01;101100.0;;;-0.11111111111111072;100.0
64862;BME280;62652;42.274;-71.436;2024-01-30T02:36:01;101100.0;;;0.0;100.0
64862;BME280;62652;42.274;-71.436;2024-01-30T02:37:01;101100.0;;;-0.11111111111111072;100.0
64862;BME280;62652;42.274;-71.436;2024-01-30T02:38:01;101110.0;;;-0.11111111111111072;100.0
64862;BME280;62652;42.274;-71.436;2024-01-30T02:39:00;101110.0;;;-0.11111111111111072;100.0
64862;BME280;62652;42.274;-71.436;2024-01-30T02:40:01;101110.0;;;0.11111111111111269;100.0
64862;BME280;62652;42.274;-71.436;2024-01-30T02:41:01;101110.0;;;0.0;100.0
64862;BME280;62652;42.274;-71.436;2024-01-30T02:42:01;101110.0;;;0.0;100.0
64862;BME280;62652;42.274;-71.436;2024-01-30T02:43:02;101110.0;;;0.0;100.0
64862;BME280;62652;42.274;-71.436;2024-01-30T02:44:01;101110.0;;;0.0;100.0
64862;BME280;62652;42.274;-71.436;2024-01-30T02:45:00;101110.0;;;0.0;100.0
64862;BME280;62652;42.274;-71.436;2024-01-30T02:46:00;101120.0;;;0.11111111111111269;100.0
64862;BME280;62652;42.274;-71.436;2024-01-30T02:47:00;101120.0;;;0.11111111111111269;100.0
64862;BME280;62652;42.274;-71.436;2024-01-30T02:48:00;101120.0;;;0.11111111111111269;100.0
64862;BME280;62652;42.274;-71.436;2024-01-30T02:49:00;101120.0;;;0.0;100.0
64862;BME280;62652;42.274;-71.436;2024-01-30T02:50:00;101120.0;;;0.11111111111111269;100.0
64862;BME280;62652;42.274;-71.436;2024-01-30T02:51:01;101120.0;;;-0.11111111111111072;100.0
64862;BME280;62652;42.274;-71.436;2024-01-30T02:52:00;101120.0;;;0.0;100.0
64862;BME280;62652;42.274;-71.436;2024-01-30T02:53:01;101120.0;;;0.0;100.0
64862;BME280;62652;42.274;-71.436;2024-01-30T02:54:00;101120.0;;;0.0;100.0
64862;BME280;62652;42.274;-71.436;2024-01-30T02:55:01;101130.0;;;0.0;100.0
64862;BME280;62652;42.274;-71.436;2024-01-30T02:56:03;101130.0;;;0.0;100.0
64862;BME280;62652;42.274;-71.436;2024-01-30T02:57:00;101130.0;;;-0.11111111111111072;100.0
64862;BME280;62652;42.274;-71.436;2024-01-30T02:58:00;101130.0;;;-0.11111111111111072;100.0
64862;BME280;62652;42.274;-71.436;2024-01-30T02:59:00;101130.0;;;-0.11111111111111072;100.0
64862;BME280;62652;42.274;-71.436;2024-01-30T03:00:00;101130.0;;;-0.11111111111111072;100.0
64862;BME280;62652;42.274;-71.436;2024-01-30T03:01:00;101140.0;;;0.0;100.0
64862;BME280;62652;42.274;-71.436;2024-01-30T03:02:00;101130.0;;;0.0;100.0
64862;BME280;62652;42.274;-71.436;2024-01-30T03:03:00;101140.0;;;0.11111111111111269;100.0
64862;BME280;62652;42.274;-71.436;2024-01-30T03:04:00;101140.0;;;0.11111111111111269;100.0
64862;BME280;62652;42.274;-71.436;2024-01-30T03:05:00;101140.0;;;0.11111111111111269;100.0
64862;BME280;62652;42.274;-71.436;2024-01-30T03:06:01;101140.0;;;0.0;100.0
64862;BME280;62652;42.274;-71.436;2024-01-30T03:07:00;101130.0;;;0.0;100.0
64862;BME280;62652;42.274;-71.436;2024-01-30T03:08:00;101130.0;;;0.11111111111111269;100.0
64862;BME280;62652;42.274;-71.436;2024-01-30T03:09:00;101130.0;;;0.11111111111111269;100.0
64862;BME280;62652;42.274;-71.436;2024-01-30T03:10:01;101130.0;;;0.0;100.0
64862;BME280;62652;42.274;-71.436;2024-01-30T03:11:01;101130.0;;;-0.11111111111111072;100.0
64862;BME280;62652;42.274;-71.436;2024-01-30T03:12:00;101140.0;;;0.0;100.0
64862;BME280;62652;42.274;-71.436;2024-01-30T03:13:00;101140.0;;;-0.11111111111111072;100.0
64862;BME280;62652;42.274;-71.436;2024-01-30T03:14:00;101140.0;;;0.0;100.0
64862;BME280;62652;42.274;-71.436;2024-01-30T03:15:00;101140.0;;;0.11111111111111269;100.0
64862;BME280;62652;42.274;-71.436;2024-01-30T03:16:00;101140.0;;;0.11111111111111269;100.0
64862;BME280;62652;42.274;-71.436;2024-01-30T03:17:01;101140.0;;;0.0;100.0
64862;BME280;62652;42.274;-71.436;2024-01-30T03:18:01;101140.0;;;0.0;100.0
64862;BME280;62652;42.274;-71.436;2024-01-30T03:19:00;101150.0;;;0.0;100.0
64862;BME280;62652;42.274;-71.436;2024-01-30T03:20:00;101150.0;;;0.0;100.0
64862;BME280;62652;42.274;-71.436;2024-01-30T03:21:00;101150.0;;;-0.11111111111111072;100.0
64862;BME280;62652;42.274;-71.436;2024-01-30T03:22:00;101150.0;;;0.0;100.0
64862;BME280;62652;42.274;-71.436;2024-01-30T03:23:00;101150.0;;;0.0;100.0
64862;BME280;62652;42.274;-71.436;2024-01-30T03:24:01;101150.0;;;0.0;100.0
64862;BME280;62652;42.274;-71.436;2024-01-30T03:25:00;101150.0;;;-0.11111111111111072;100.0
64862;BME280;62652;42.274;-71.436;2024-01-30T03:26:01;101160.0;;;-0.11111111111111072;100.0
64862;BME280;62652;42.274;-71.436;2024-01-30T03:27:00;101160.0;;;-0.11111111111111072;100.0
64862;BME280;62652;42.274;-71.436;2024-01-30T03:28:00;101160.0;;;0.0;100.0
64862;BME280;62652;42.274;-71.436;2024-01-30T03:29:00;101160.0;;;0.0;100.0
64862;BME280;62652;42.274;-71.436;2024-01-30T03:30:01;101160.0;;;0.11111111111111269;100.0
64862;BME280;62652;42.274;-71.436;2024-01-30T03:31:01;101160.0;;;0.0;100.0
64862;BME280;62652;42.274;-71.436;2024-01-30T03:32:01;101160.0;;;0.0;100.0
64862;BME280;62652;42.274;-71.436;2024-01-30T03:33:00;101160.0;;;0.22222222222222143;100.0
64862;BME280;62652;42.274;-71.436;2024-01-30T03:34:00;101160.0;;;0.0;100.0
64862;BME280;62652;42.274;-71.436;2024-01-30T03:35:00;101160.0;;;0.0;100.0
64862;BME280;62652;42.274;-71.436;2024-01-30T03:36:04;101160.0;;;0.11111111111111269;100.0
64862;BME280;62652;42.274;-71.436;2024-01-30T03:37:00;101160.0;;;0.0;100.0
64862;BME280;62652;42.274;-71.436;2024-01-30T03:38:00;101160.0;;;-0.11111111111111072;100.0
64862;BME280;62652;42.274;-71.436;2024-01-30T03:39:00;101160.0;;;0.0;100.0
64862;BME280;62652;42.274;-71.436;2024-01-30T03:40:01;101160.0;;;0.0;100.0
64862;BME280;62652;42.274;-71.436;2024-01-30T03:41:00;101160.0;;;0.0;100.0
64862;BME280;62652;42.274;-71.436;2024-01-30T03:42:00;101170.0;;;0.11111111111111269;100.0
64862;BME280;62652;42.274;-71.436;2024-01-30T03:43:00;101160.0;;;0.11111111111111269;100.0
64862;BME280;62652;42.274;-71.436;2024-01-30T03:44:00;101170.0;;;0.0;100.0
64862;BME280;62652;42.274;-71.436;2024-01-30T03:45:01;101170.0;;;-0.11111111111111072;100.0
64862;BME280;62652;42.274;-71.436;2024-01-30T03:46:01;101170.0;;;0.0;100.0
64862;BME280;62652;42.274;-71.436;2024-01-30T03:47:01;101170.0;;;0.0;100.0
64862;BME280;62652;42.274;-71.436;2024-01-30T03:48:00;101170.0;;;0.0;100.0
64862;BME280;62652;42.274;-71.436;2024-01-30T03:49:00;101170.0;;;0.0;100.0
64862;BME280;62652;42.274;-71.436;2024-01-30T03:50:00;101170.0;;;0.0;100.0
64862;BME280;62652;42.274;-71.436;2024-01-30T03:51:01;101170.0;;;0.0;100.0
64862;BME280;62652;42.274;-71.436;2024-01-30T03:52:00;101170.0;;;0.0;100.0
64862;BME280;62652;42.274;-71.436;2024-01-30T03:53:00;101170.0;;;0.0;100.0
64862;BME280;62652;42.274;-71.436;2024-01-30T03:54:01;101170.0;;;0.0;100.0
64862;BME280;62652;42.274;-71.436;2024-01-30T03:55:00;101170.0;;;0.0;100.0
64862;BME280;62652;42.274;-71.436;2024-01-30T03:56:01;101170.0;;;0.0;100.0
64862;BME280;62652;42.274;-71.436;2024-01-30T03:57:01;101180.0;;;0.0;100.0
64862;BME280;62652;42.274;-71.436;2024-01-30T03:58:01;101180.0;;;0.0;100.0
64862;BME280;62652;42.274;-71.436;2024-01-30T03:59:01;101170.0;;;0.0;100.0
64862;BME280;62652;42.274;-71.436;2024-01-30T04:00:00;101170.0;;;-0.11111111111111072;100.0
64862;BME280;62652;42.274;-71.436;2024-01-30T04:01:01;101180.0;;;-0.11111111111111072;100.0
64862;BME280;62652;42.274;-71.436;2024-01-30T04:02:02;101180.0;;;0.0;100.0
64862;BME280;62652;42.274;-71.436;2024-01-30T04:03:00;101180.0;;;0.11111111111111269;100.0
64862;BME280;62652;42.274;-71.436;2024-01-30T04:04:00;101180.0;;;0.11111111111111269;100.0
64862;BME280;62652;42.274;-71.436;2024-01-30T04:05:00;101180.0;;;0.0;100.0
64862;BME280;62652;42.274;-71.436;2024-01-30T04:06:00;101180.0;;;-0.11111111111111072;100.0
64862;BME280;62652;42.274;-71.436;2024-01-30T04:07:00;101180.0;;;-0.11111111111111072;100.0
64862;BME280;62652;42.274;-71.436;2024-01-30T04:08:00;101180.0;;;-0.22222222222222143;100.0
64862;BME280;62652;42.274;-71.436;2024-01-30T04:09:00;101190.0;;;0.11111111111111269;100.0
64862;BME280;62652;42.274;-71.436;2024-01-30T04:10:01;101190.0;;;0.0;100.0
64862;BME280;62652;42.274;-71.436;2024-01-30T04:11:03;101190.0;;;-0.11111111111111072;100.0
64862;BME280;62652;42.274;-71.436;2024-01-30T04:12:00;101190.0;;;-0.11111111111111072;100.0
64862;BME280;62652;42.274;-71.436;2024-01-30T04:13:01;101180.0;;;-0.11111111111111072;100.0
64862;BME280;62652;42.274;-71.436;2024-01-30T04:14:01;101190.0;;;-0.22222222222222143;100.0
64862;BME280;62652;42.274;-71.436;2024-01-30T04:15:01;101180.0;;;-0.22222222222222143;100.0
64862;BME280;62652;42.274;-71.436;2024-01-30T04:16:01;101190.0;;;-0.22222222222222143;100.0
64862;BME280;62652;42.274;-71.436;2024-01-30T04:17:00;101190.0;;;-0.11111111111111072;100.0
64862;BME280;62652;42.274;-71.436;2024-01-30T04:18:00;101190.0;;;-0.11111111111111072;100.0
64862;BME280;62652;42.274;-71.436;2024-01-30T04:19:00;101190.0;;;-0.11111111111111072;100.0
64862;BME280;62652;42.274;-71.436;2024-01-30T04:20:00;101180.0;;;-0.11111111111111072;100.0
64862;BME280;62652;42.274;-71.436;2024-01-30T04:21:00;101190.0;;;-0.11111111111111072;100.0
64862;BME280;62652;42.274;-71.436;2024-01-30T04:22:00;101190.0;;;-0.11111111111111072;100.0
64862;BME280;62652;42.274;-71.436;2024-01-30T04:23:00;101190.0;;;-0.11111111111111072;100.0
64862;BME280;62652;42.274;-71.436;2024-01-30T04:24:00;101190.0;;;-0.11111111111111072;100.0
64862;BME280;62652;42.274;-71.436;2024-01-30T04:25:00;101190.0;;;-0.11111111111111072;100.0
64862;BME280;62652;42.274;-71.436;2024-01-30T04:26:00;101200.0;;;-0.11111111111111072;100.0
64862;BME280;62652;42.274;-71.436;2024-01-30T04:27:00;101200.0;;;-0.11111111111111072;100.0
64862;BME280;62652;42.274;-71.436;2024-01-30T04:28:00;101200.0;;;-0.11111111111111072;100.0
64862;BME280;62652;42.274;-71.436;2024-01-30T04:29:00;101200.0;;;-0.22222222222222143;100.0
64862;BME280;62652;42.274;-71.436;2024-01-30T04:30:00;101200.0;;;-0.11111111111111072;100.0
64862;BME280;62652;42.274;-71.436;2024-01-30T04:31:00;101200.0;;;-0.11111111111111072;100.0
64862;BME280;62652;42.274;-71.436;2024-01-30T04:32:01;101200.0;;;0.0;100.0
64862;BME280;62652;42.274;-71.436;2024-01-30T04:33:00;101210.0;;;-0.11111111111111072;100.0
64862;BME280;62652;42.274;-71.436;2024-01-30T04:34:00;101210.0;;;-0.11111111111111072;100.0
64862;BME280;62652;42.274;-71.436;2024-01-30T04:35:01;101200.0;;;0.0;100.0
64862;BME280;62652;42.274;-71.436;2024-01-30T04:36:00;101210.0;;;0.0;100.0
64862;BME280;62652;42.274;-71.436;2024-01-30T04:37:00;101200.0;;;-0.11111111111111072;100.0
64862;BME280;62652;42.274;-71.436;2024-01-30T04:38:00;101210.0;;;-0.11111111111111072;100.0